This is the latest recevied weather packets stored in our database for station/object KF4LQQ-13. If no packets are shown the sender has not sent any weather packets the latest 10 day(s).
| Time | Temp. | Humidity | Pressure | Rain* | Wind** | Luminosity | Snow |
|---|---|---|---|---|---|---|---|
| 1777603168 | 25° C | - | 1010.1 hPa | 0 mm | - | - | - |
| 1777602568 | 25° C | - | 1010.3 hPa | 0 mm | - | - | - |
| 1777601968 | 25° C | - | 1010.2 hPa | 0 mm | - | - | - |
| 1777601368 | 25° C | - | 1010.2 hPa | 0 mm | - | - | - |
| 1777600167 | 25° C | - | 1010.2 hPa | 0 mm | - | - | - |
| 1777586960 | 27.22° C | - | 1009 hPa | 0 mm | - | - | - |
| 1777584558 | 28.33° C | - | 1009.1 hPa | 0 mm | - | - | - |
| 1777583958 | 27.22° C | - | 1009.3 hPa | 0 mm | - | - | - |
| 1777582157 | 28.33° C | - | 1009.2 hPa | 0 mm | - | - | - |
| 1777580356 | 28.89° C | - | 1009.3 hPa | 0 mm | - | - | - |
| 1777580048 | 29.44° C | - | 1009.4 hPa | 0 mm | - | - | - |
| 1777579756 | 29.44° C | - | 1009.4 hPa | 0 mm | - | - | - |
| 1777579156 | 30° C | - | 1009.2 hPa | 0 mm | - | - | - |
| 1777577355 | 30° C | - | 1009.6 hPa | 0 mm | - | - | - |
| 1777576755 | 30° C | - | 1009.7 hPa | 0 mm | - | - | - |
| 1777576154 | 30° C | - | 1009.8 hPa | 0 mm | - | - | - |
| 1777574952 | 28.89° C | - | 1010 hPa | 0 mm | - | - | - |
| 1777573151 | 28.89° C | - | 1010 hPa | 0 mm | - | - | - |
| 1777571948 | 28.89° C | - | 1010.2 hPa | 0 mm | - | - | - |
| 1777570747 | 27.78° C | - | 1010.4 hPa | 0 mm | - | - | - |
| 1777570666 | 27.78° C | - | 1010.6 hPa | 0 mm | - | - | - |
| 1777570147 | 27.78° C | - | 1010.6 hPa | 0 mm | - | - | - |
| 1777569547 | 27.22° C | - | 1010.6 hPa | 0 mm | - | - | - |
| 1777567746 | 27.78° C | - | 1010.7 hPa | 0 mm | - | - | - |
| 1777567146 | 27.78° C | - | 1010.8 hPa | 0 mm | - | - | - |
* Rain since midnight (hover to see other rain measurements)
** Current wind speed in m/s (hover to see current wind gust speed)